Time;durP1;ratioP1;P1;durP2;ratioP2;P2;SDS_P1;SDS_P2;PMS_P1;PMS_P2;Temp;Humidity;BMP_temperature;BMP_pressure;BME280_temperature;BME280_humidity;BME280_pressure;Samples;Min_cycle;Max_cycle;Signal;HPM_P1;HPM_P2
2021/12/05 00:23:44;;;;;;;51.25;24.73;;;;;;;1.98;100.00;96751.81;5040494;28;20044;-90
2021/12/05 00:26:15;;;;;;;49.40;23.02;;;;;;;1.67;100.00;96730.25;5023817;28;20036;-89
2021/12/05 01:16:45;;;;;;;35.95;17.70;;;;;;;1.93;100.00;96727.41;5044307;28;20052;-90
2021/12/05 01:19:13;;;;;;;34.85;17.20;;;;;;;1.76;100.00;96716.69;5045446;28;20040;-88
2021/12/05 01:21:40;;;;;;;31.25;17.80;;;;;;;1.64;100.00;96712.78;5026538;28;20094;-90
2021/12/05 01:27:16;;;;;;;41.05;19.20;;;;;;;1.16;100.00;96664.69;5047040;28;20087;-90
2021/12/05 01:29:42;;;;;;;37.38;19.02;;;;;;;1.26;100.00;96684.44;5046973;28;20048;-89
2021/12/05 01:32:27;;;;;;;44.25;20.52;;;;;;;1.23;100.00;96692.47;5031945;28;20021;-89
2021/12/05 01:43:28;;;;;;;43.72;19.67;;;;;;;1.09;100.00;96681.63;5040350;28;20036;-89
2021/12/05 01:58:35;;;;;;;40.50;19.58;;;;;;;1.18;100.00;96691.81;5045851;28;20033;-89
2021/12/05 02:01:26;;;;;;;46.13;19.92;;;;;;;1.00;100.00;96667.06;5028789;28;20056;-90
2021/12/05 02:09:53;;;;;;;44.38;17.63;;;;;;;1.20;100.00;96697.88;5043971;28;20043;-89
2021/12/05 02:34:48;;;;;;;41.65;18.48;;;;;;;1.28;100.00;96695.81;5042865;28;20645;-90
2021/12/05 02:42:14;;;;;;;38.17;17.42;;;;;;;1.37;100.00;96700.72;5039535;28;20048;-90
2021/12/05 02:44:41;;;;;;;41.70;19.60;;;;;;;1.39;100.00;96693.59;5006835;28;20474;-88
2021/12/05 02:47:14;;;;;;;39.28;19.92;;;;;;;1.64;100.00;96733.00;5005295;28;20025;-90
2021/12/05 02:49:44;;;;;;;37.28;19.05;;;;;;;1.43;100.00;96708.38;5004800;28;20464;-91
2021/12/05 02:52:19;;;;;;;38.22;17.70;;;;;;;1.51;100.00;96703.66;5003492;28;20044;-89
2021/12/05 02:54:50;;;;;;;37.25;18.50;;;;;;;1.64;100.00;96718.06;5004094;28;20030;-91
2021/12/05 02:57:19;;;;;;;38.50;18.50;;;;;;;1.78;100.00;96732.47;5004113;28;20037;-90
2021/12/05 02:59:51;;;;;;;39.47;18.85;;;;;;;1.67;100.00;96714.44;5003302;28;20032;-89
2021/12/05 03:02:19;;;;;;;39.85;19.25;;;;;;;1.70;100.00;96700.25;5004387;28;20025;-90
2021/12/05 03:04:48;;;;;;;36.72;17.70;;;;;;;1.77;100.00;96714.91;5003800;28;20022;-89
2021/12/05 03:07:15;;;;;;;38.72;18.60;;;;;;;1.76;100.00;96706.16;5001635;28;20146;-89
2021/12/05 03:09:42;;;;;;;38.78;18.85;;;;;;;1.80;100.00;96705.09;5002882;28;20037;-89
2021/12/05 03:12:16;;;;;;;45.55;18.38;;;;;;;1.79;100.00;96708.66;5013814;28;20472;-90
2021/12/05 03:14:42;;;;;;;44.33;19.80;;;;;;;1.91;100.00;96733.66;5024933;28;20556;-90
2021/12/05 03:17:07;;;;;;;44.03;19.52;;;;;;;1.75;100.00;96703.59;5024965;28;20107;-90
2021/12/05 03:19:33;;;;;;;42.13;19.38;;;;;;;1.75;100.00;96703.59;5041760;28;20407;-89
2021/12/05 03:21:59;;;;;;;36.65;18.02;;;;;;;1.86;100.00;96714.53;5024151;28;20024;-90
2021/12/05 03:24:25;;;;;;;40.83;19.88;;;;;;;1.73;100.00;96702.78;5040344;28;20025;-88
2021/12/05 03:26:52;;;;;;;47.38;19.90;;;;;;;1.75;100.00;96727.31;5023015;28;20029;-90
2021/12/05 03:29:21;;;;;;;47.80;20.75;;;;;;;1.69;100.00;96727.56;5041570;28;20523;-89
2021/12/05 03:35:09;;;;;;;56.00;22.00;;;;;;;1.41;100.00;96712.84;5056859;28;20067;-88
2021/12/05 03:37:35;;;;;;;55.20;25.00;;;;;;;1.34;100.00;96713.13;5022527;28;20557;-90
2021/12/05 03:40:02;;;;;;;55.00;26.50;;;;;;;1.27;100.00;96706.38;5039602;28;20024;-88
2021/12/05 03:42:29;;;;;;;71.60;29.55;;;;;;;1.36;100.00;96727.09;5023509;28;20040;-88
2021/12/05 03:44:54;;;;;;;64.63;28.52;;;;;;;1.34;100.00;96735.06;5021948;28;20024;-89
2021/12/05 03:47:20;;;;;;;69.70;29.60;;;;;;;1.29;100.00;96741.44;5021744;28;20041;-89
2021/12/05 03:49:46;;;;;;;62.17;27.65;;;;;;;1.00;100.00;96689.88;5039355;28;20029;-89
2021/12/05 03:52:14;;;;;;;55.28;24.63;;;;;;;1.02;100.00;96699.44;5021788;28;20549;-88
2021/12/05 03:54:41;;;;;;;53.42;24.13;;;;;;;1.11;100.00;96728.97;5021712;28;20041;-90
2021/12/05 03:57:07;;;;;;;61.08;25.23;;;;;;;1.23;100.00;96739.88;5022181;28;20032;-90
2021/12/05 03:59:33;;;;;;;61.70;25.38;;;;;;;1.00;100.00;96706.53;5024043;28;20073;-89
2021/12/05 04:02:04;;;;;;;49.20;22.30;;;;;;;1.07;100.00;96710.66;5024709;28;20085;-90
2021/12/05 04:04:30;;;;;;;46.67;22.33;;;;;;;1.09;100.00;96711.47;5023721;28;20025;-90
2021/12/05 04:06:56;;;;;;;50.28;21.83;;;;;;;1.14;100.00;96707.81;5023590;28;20029;-90
2021/12/05 04:09:22;;;;;;;53.35;22.75;;;;;;;1.20;100.00;96700.50;5023670;28;20032;-90
2021/12/05 04:12:01;;;;;;;47.28;22.35;;;;;;;1.16;100.00;96701.56;5026021;28;20029;-91
2021/12/05 04:14:33;;;;;;;55.33;23.20;;;;;;;1.05;100.00;96698.44;5025162;28;20029;-91
2021/12/05 04:16:59;;;;;;;60.35;25.33;;;;;;;1.09;100.00;96700.06;5024961;28;20048;-89
2021/12/05 04:19:25;;;;;;;49.97;22.65;;;;;;;0.93;100.00;96680.50;5025079;28;20120;-90
2021/12/05 04:21:50;;;;;;;48.38;21.33;;;;;;;0.90;100.00;96689.38;5024453;28;20503;-90
2021/12/05 04:24:16;;;;;;;51.38;23.52;;;;;;;0.99;100.00;96698.69;5023584;28;20025;-89
2021/12/05 04:26:42;;;;;;;57.15;23.92;;;;;;;1.08;100.00;96719.41;5023870;28;20040;-90
2021/12/05 04:29:09;;;;;;;49.30;23.35;;;;;;;1.03;100.00;96703.78;5022325;28;20025;-89
2021/12/05 04:31:37;;;;;;;58.30;24.02;;;;;;;1.04;100.00;96717.81;5022710;28;20079;-89
2021/12/05 04:34:03;;;;;;;58.42;25.13;;;;;;;1.08;100.00;96732.56;5022714;28;20036;-89
2021/12/05 04:36:28;;;;;;;58.00;25.02;;;;;;;1.04;100.00;96708.16;5020999;28;20124;-90
2021/12/05 04:38:54;;;;;;;59.17;28.98;;;;;;;1.11;100.00;96714.00;5019668;28;20033;-91
2021/12/05 04:41:20;;;;;;;59.53;25.60;;;;;;;1.03;100.00;96701.16;5024096;28;20028;-89
2021/12/05 04:43:47;;;;;;;59.70;24.55;;;;;;;1.12;100.00;96725.41;5022514;28;20025;-90
2021/12/05 04:46:15;;;;;;;61.20;25.95;;;;;;;1.05;100.00;96722.16;5023279;28;20431;-89
2021/12/05 04:48:45;;;;;;;68.95;27.45;;;;;;;1.12;100.00;96722.78;5023272;28;20033;-90
2021/12/05 04:51:11;;;;;;;70.90;33.47;;;;;;;0.98;100.00;96707.53;5023056;28;20484;-89
2021/12/05 04:53:37;;;;;;;68.32;32.10;;;;;;;1.05;100.00;96715.13;5022467;28;20032;-89
2021/12/05 04:56:03;;;;;;;70.15;31.35;;;;;;;0.89;100.00;96711.34;5017299;28;20033;-90
2021/12/05 04:58:29;;;;;;;72.07;31.65;;;;;;;0.78;100.00;96725.81;5023675;28;20025;-88
2021/12/05 05:00:57;;;;;;;73.50;31.88;;;;;;;0.98;100.00;96739.97;5021365;28;20021;-89
2021/12/05 05:03:26;;;;;;;65.35;29.10;;;;;;;1.07;100.00;96749.31;5019343;28;20103;-89
2021/12/05 05:06:01;;;;;;;64.50;29.90;;;;;;;1.00;100.00;96724.09;5017222;28;20048;-89
2021/12/05 05:08:30;;;;;;;54.80;23.00;;;;;;;0.76;100.00;96693.44;5018204;28;20021;-86
2021/12/05 05:10:56;;;;;;;42.55;19.73;;;;;;;0.74;100.00;96711.91;5033694;28;20017;-88
2021/12/05 05:13:22;;;;;;;49.28;22.08;;;;;;;0.76;100.00;96733.78;5033689;28;20025;-88
2021/12/05 05:15:47;;;;;;;56.65;24.98;;;;;;;0.58;100.00;96718.66;5018040;28;20448;-89
2021/12/05 05:18:18;;;;;;;64.65;26.65;;;;;;;0.55;100.00;96714.34;5017592;28;20029;-89
2021/12/05 05:23:26;;;;;;;74.05;32.75;;;;;;;0.60;100.00;96743.13;5036134;28;20068;-88
2021/12/05 05:39:43;;;;;;;95.53;40.72;;;;;;;0.54;100.00;96738.97;5035907;28;20451;-89
2021/12/05 05:45:16;;;;;;;102.18;34.50;;;;;;;0.39;100.00;96731.63;5036954;28;20510;-89
2021/12/05 05:50:17;;;;;;;62.47;23.25;;;;;;;0.65;100.00;96725.41;5046466;28;20507;-91
2021/12/05 05:52:43;;;;;;;132.23;31.88;;;;;;;0.37;100.00;96683.44;5027246;28;20408;-90
2021/12/05 05:55:10;;;;;;;102.35;27.98;;;;;;;0.64;100.00;96731.59;5026475;28;20028;-90
2021/12/05 05:57:56;;;;;;;67.32;25.50;;;;;;;0.33;100.00;96678.38;5027237;28;20032;-91
2021/12/05 06:00:32;;;;;;;79.57;26.42;;;;;;;0.53;100.00;96704.81;5029746;28;20563;-90
2021/12/05 06:05:42;;;;;;;63.80;23.25;;;;;;;0.77;100.00;96734.66;5045547;28;20039;-90
2021/12/05 06:08:08;;;;;;;54.85;24.30;;;;;;;0.65;100.00;96703.53;5024275;28;20424;-90
2021/12/05 06:10:34;;;;;;;62.90;26.65;;;;;;;0.93;100.00;96726.09;5028251;28;20098;-90
2021/12/05 06:12:59;;;;;;;66.25;27.85;;;;;;;0.89;100.00;96694.72;5027590;28;20106;-88
2021/12/05 06:15:27;;;;;;;60.92;23.38;;;;;;;0.99;100.00;96696.91;5027029;28;20452;-89
2021/12/05 06:17:53;;;;;;;43.45;17.13;;;;;;;1.45;100.00;96701.25;5026458;28;20039;-89
2021/12/05 06:20:23;;;;;;;62.20;26.77;;;;;;;1.75;100.00;96706.22;5026937;28;20068;-90
2021/12/05 06:22:49;;;;;;;65.00;28.80;;;;;;;1.90;100.00;96710.88;5026248;28;20119;-91
2021/12/05 06:25:22;;;;;;;67.30;31.67;;;;;;;1.84;100.00;96661.03;5026825;28;20077;-90
2021/12/05 06:27:48;;;;;;;77.72;34.30;;;;;;;2.33;100.00;96689.66;5028448;28;20060;-88
2021/12/05 06:46:27;;;;;;;76.20;42.38;;;;;;;9.92;72.79;96667.03;5048599;28;20040;-90
2021/12/05 06:48:53;;;;;;;97.93;54.90;;;;;;;11.19;67.41;96718.84;5031884;28;20151;-89
2021/12/05 06:51:24;;;;;;;31.23;16.83;;;;;;;11.50;61.39;96717.28;5029945;28;20048;-89
2021/12/05 06:53:50;;;;;;;39.78;19.63;;;;;;;12.20;59.38;96727.75;5031739;28;20028;-89
2021/12/05 06:56:16;;;;;;;17.52;7.57;;;;;;;13.02;58.95;96735.13;5028730;28;20032;-88
2021/12/05 06:58:42;;;;;;;12.63;7.57;;;;;;;12.92;59.73;96726.16;5029651;28;20024;-90
2021/12/05 07:01:10;;;;;;;9.57;5.68;;;;;;;13.17;59.43;96730.31;5028735;28;20553;-87
2021/12/05 07:03:38;;;;;;;14.32;8.07;;;;;;;13.49;59.39;96726.56;5021488;28;20551;-80
2021/12/05 07:06:08;;;;;;;15.40;7.78;;;;;;;13.95;56.87;96717.16;5033802;28;20025;-93
2021/12/05 07:08:36;;;;;;;12.98;6.72;;;;;;;14.05;56.41;96718.03;5023226;28;20086;-89
2021/12/05 07:12:30;;;;;;;22.27;11.63;;;;;;;15.35;53.41;96724.81;5025337;28;20119;-89
2021/12/05 07:14:49;;;;;;;;;;;;;;;16.14;49.87;96719.94;5060728;28;20029;-90
2021/12/05 07:23:44;;;;;;;21.38;13.70;;;;;;;14.89;49.38;96720.19;5045183;28;20029;-94
2021/12/05 07:26:20;;;;;;;20.98;12.32;;;;;;;15.98;47.58;96736.75;5034051;28;20999;-95
2021/12/05 07:42:33;;;;;;;13.50;5.93;;;;;;;14.22;52.56;96673.47;5039978;28;20028;-92
2021/12/05 07:45:03;;;;;;;10.15;6.22;;;;;;;14.01;53.46;96689.72;5026899;28;20020;-94
2021/12/05 07:47:32;;;;;;;9.93;5.85;;;;;;;13.59;54.08;96643.31;5053400;28;20041;-92
2021/12/05 07:50:21;;;;;;;17.45;8.80;;;;;;;14.15;53.32;96678.56;5052142;28;20030;-95
2021/12/05 07:53:18;;;;;;;11.75;5.70;;;;;;;14.38;53.19;96698.91;5040038;28;20057;-91
2021/12/05 07:55:48;;;;;;;6.82;4.07;;;;;;;13.95;53.46;96660.69;5035921;28;20029;-92
2021/12/05 08:14:42;;;;;;;18.02;6.97;;;;;;;12.99;58.06;96730.00;5048691;28;20066;-79
2021/12/05 08:17:15;;;;;;;19.17;9.38;;;;;;;12.99;58.26;96738.06;5014979;28;20024;-81
2021/12/05 08:19:41;;;;;;;105.93;7.70;;;;;;;13.48;56.59;96749.03;5029556;28;20033;-77
2021/12/05 08:22:06;;;;;;;34.63;6.53;;;;;;;13.29;56.98;96740.84;5014364;28;20032;-80
2021/12/05 08:24:34;;;;;;;14.57;5.25;;;;;;;13.01;57.58;96754.91;5029284;28;20048;-78
2021/12/05 08:27:02;;;;;;;10.80;6.85;;;;;;;13.29;57.80;96751.59;5031383;28;20091;-81
2021/12/05 08:29:38;;;;;;;10.15;5.55;;;;;;;13.63;56.35;96760.28;5031379;28;20381;-85
2021/12/05 08:34:53;;;;;;;11.93;6.07;;;;;;;13.89;55.76;96745.44;5033543;28;20475;-81
2021/12/05 09:24:21;;;;;;;13.20;6.60;;;;;;;14.46;54.38;96741.25;5027838;28;20477;-79
2021/12/05 10:37:37;;;;;;;39.95;18.67;;;;;;;16.22;48.55;96610.22;5017959;28;20089;-78
2021/12/05 10:40:11;;;;;;;14.43;7.10;;;;;;;15.70;48.88;96613.66;5032277;28;20032;-78
2021/12/05 10:42:44;;;;;;;25.58;11.15;;;;;;;15.89;48.61;96593.84;5015917;28;20110;-78
2021/12/05 10:45:19;;;;;;;14.57;6.78;;;;;;;15.90;48.79;96599.09;5015991;28;20053;-78
2021/12/05 10:47:51;;;;;;;19.02;8.68;;;;;;;16.32;48.08;96591.28;5032378;28;20025;-78
2021/12/05 10:50:34;;;;;;;9.75;5.35;;;;;;;16.86;46.22;96575.91;5031062;28;20151;-79
2021/12/05 10:53:18;;;;;;;12.45;7.35;;;;;;;16.46;46.80;96562.88;5047969;28;20036;-78
2021/12/05 10:55:44;;;;;;;14.95;8.68;;;;;;;16.04;47.73;96558.09;5032251;28;20455;-78
2021/12/05 10:58:10;;;;;;;17.15;8.70;;;;;;;16.61;47.67;96567.59;5015330;28;20488;-79
2021/12/05 11:00:36;;;;;;;12.02;5.78;;;;;;;16.89;45.88;96554.81;5032116;28;20120;-75
2021/12/05 11:03:19;;;;;;;12.30;7.15;;;;;;;17.16;46.33;96561.94;5015300;28;20108;-83
2021/12/05 11:05:47;;;;;;;11.27;6.22;;;;;;;17.19;44.90;96557.06;5050093;28;20033;-77
2021/12/05 11:08:32;;;;;;;10.68;6.10;;;;;;;17.03;45.67;96562.38;5032017;28;20029;-79
2021/12/05 11:11:12;;;;;;;10.30;5.15;;;;;;;17.17;45.18;96553.66;5015770;28;20094;-78
2021/12/05 11:13:39;;;;;;;12.77;5.00;;;;;;;16.97;46.07;96544.09;5015688;28;20047;-77
2021/12/05 11:16:34;;;;;;;17.52;9.95;;;;;;;17.34;45.74;96554.59;5015435;28;20032;-78
2021/12/05 11:19:00;;;;;;;13.05;6.78;;;;;;;17.95;43.93;96531.88;5049601;28;20025;-78
2021/12/05 11:21:32;;;;;;;13.32;6.60;;;;;;;18.54;42.34;96534.38;5015146;28;20025;-78
2021/12/05 11:24:26;;;;;;;6.22;4.40;;;;;;;18.84;41.12;96530.13;5015547;28;20033;-78
2021/12/05 11:27:09;;;;;;;9.38;4.80;;;;;;;18.96;41.25;96523.34;5000901;28;20475;-79
2021/12/05 11:29:46;;;;;;;10.75;6.35;;;;;;;18.87;41.41;96508.09;5031410;28;20037;-80
2021/12/05 11:32:19;;;;;;;10.55;6.40;;;;;;;19.14;41.04;96501.44;5032135;28;20416;-90
2021/12/05 11:34:45;;;;;;;11.55;6.25;;;;;;;18.33;41.76;96494.19;5003727;28;20045;-90
2021/12/05 11:37:11;;;;;;;12.02;4.38;;;;;;;17.56;43.75;96482.91;5019137;28;20021;-76
2021/12/05 11:39:37;;;;;;;12.35;6.50;;;;;;;17.66;43.80;96499.84;5031934;28;20039;-76
2021/12/05 11:42:11;;;;;;;8.68;4.88;;;;;;;18.33;42.71;96515.84;5035378;28;20020;-76
2021/12/05 11:44:36;;;;;;;8.23;4.75;;;;;;;18.92;41.64;96511.13;5020015;28;20024;-79
2021/12/05 11:47:11;;;;;;;14.98;6.75;;;;;;;18.82;42.22;96508.63;5014727;28;20191;-77
2021/12/05 11:49:37;;;;;;;11.90;5.40;;;;;;;18.48;42.36;96498.97;5030324;28;20086;-77
2021/12/05 11:52:03;;;;;;;7.05;4.68;;;;;;;18.01;43.51;96498.75;5030732;28;20115;-77
2021/12/05 11:54:28;;;;;;;13.40;7.03;;;;;;;17.92;44.04;96510.56;5014397;28;20048;-77
2021/12/05 11:57:01;;;;;;;11.45;6.13;;;;;;;18.37;42.87;96506.41;5028906;28;20028;-75
2021/12/05 11:59:29;;;;;;;9.07;5.20;;;;;;;17.88;43.63;96499.22;5030757;28;20060;-76
2021/12/05 12:02:06;;;;;;;9.48;5.70;;;;;;;18.08;43.16;96494.38;5048375;28;20063;-75
2021/12/05 12:04:43;;;;;;;15.13;7.18;;;;;;;17.96;43.60;96501.13;5031512;28;20047;-83
2021/12/05 12:07:26;;;;;;;12.73;7.78;;;;;;;18.08;43.84;96480.84;5048838;28;20522;-79
2021/12/05 12:10:06;;;;;;;12.15;7.03;;;;;;;17.30;44.78;96483.78;5033834;28;20075;-79
2021/12/05 12:12:31;;;;;;;9.93;6.85;;;;;;;17.31;45.07;96479.25;5033557;28;20151;-78
2021/12/05 12:14:57;;;;;;;16.00;8.10;;;;;;;17.30;45.47;96478.38;5033027;28;20443;-78
2021/12/05 12:17:23;;;;;;;13.07;7.30;;;;;;;17.30;44.96;96482.94;5032658;28;20095;-80
2021/12/05 12:19:50;;;;;;;11.10;4.70;;;;;;;17.20;45.10;96480.38;5016018;28;20028;-79
2021/12/05 12:22:20;;;;;;;12.27;7.80;;;;;;;17.55;44.65;96481.22;5032915;28;20025;-80
2021/12/05 12:24:52;;;;;;;7.50;4.40;;;;;;;17.88;43.48;96478.44;5032850;28;20109;-76
2021/12/05 12:27:19;;;;;;;9.55;5.03;;;;;;;17.30;44.75;96472.13;5016109;28;20357;-78
2021/12/05 12:29:45;;;;;;;10.52;6.18;;;;;;;17.23;45.33;96479.19;5032656;28;20116;-80
2021/12/05 12:32:16;;;;;;;16.30;7.57;;;;;;;17.60;44.47;96498.63;5032600;28;20067;-82
2021/12/05 12:34:42;;;;;;;24.92;13.43;;;;;;;17.74;44.11;96487.19;5028513;28;20025;-83
2021/12/05 12:37:10;;;;;;;18.55;9.40;;;;;;;17.78;43.87;96485.84;5014618;28;20028;-84
2021/12/05 12:39:44;;;;;;;14.93;8.25;;;;;;;18.33;43.32;96487.97;5014941;28;20101;-83
2021/12/05 12:42:20;;;;;;;8.85;5.30;;;;;;;18.46;42.11;96488.28;5015015;28;20396;-84
2021/12/05 12:45:18;;;;;;;18.52;9.55;;;;;;;18.77;43.22;96486.59;5015212;28;20029;-81
2021/12/05 12:47:58;;;;;;;10.68;6.28;;;;;;;18.35;43.34;96475.94;5014491;28;20144;-82
2021/12/05 12:50:35;;;;;;;11.13;7.10;;;;;;;18.49;45.82;96485.28;5031173;28;20399;-84
2021/12/05 12:53:22;;;;;;;10.32;7.38;;;;;;;18.69;42.14;96450.56;5030763;28;20025;-83
2021/12/05 12:55:53;;;;;;;12.45;6.97;;;;;;;18.27;42.74;96461.56;5048819;28;20569;-83
2021/12/05 12:58:51;;;;;;;11.70;7.37;;;;;;;18.01;43.35;96455.44;5030450;28;20098;-82
2021/12/05 13:10:00;;;;;;;12.07;6.05;;;;;;;16.84;45.56;96464.47;5052884;28;20096;-83
2021/12/05 13:12:45;;;;;;;10.63;6.75;;;;;;;17.01;45.58;96468.97;5052350;28;20511;-82
2021/12/05 13:15:36;;;;;;;14.18;7.40;;;;;;;17.29;44.67;96460.47;5052057;28;20032;-81
2021/12/05 13:18:10;;;;;;;11.93;6.43;;;;;;;17.39;44.00;96462.19;5018074;28;20564;-82
2021/12/05 13:20:42;;;;;;;8.38;5.05;;;;;;;17.05;45.00;96454.09;5031416;28;20442;-82
2021/12/05 13:23:14;;;;;;;10.85;6.00;;;;;;;16.96;45.00;96455.94;5049866;28;20048;-82
2021/12/05 13:25:59;;;;;;;;;;;;;;;16.93;44.87;96463.50;5031648;28;20037;-82
2021/12/05 13:28:36;;;;;;;11.25;5.95;;;;;;;16.70;45.95;96460.53;5033617;28;19927;-83
2021/12/05 13:31:28;;;;;;;10.70;6.30;;;;;;;16.78;44.96;96447.91;5034393;28;20025;-81
2021/12/05 13:34:29;;;;;;;10.90;6.25;;;;;;;17.00;44.79;96454.63;5029478;28;20029;-81
2021/12/05 13:37:10;;;;;;;13.23;6.80;;;;;;;17.12;44.81;96461.41;5013383;28;20479;-83
2021/12/05 13:39:54;;;;;;;14.88;7.60;;;;;;;17.48;44.21;96470.16;5032780;28;20048;-83
2021/12/05 13:42:22;;;;;;;12.63;7.47;;;;;;;17.60;43.51;96458.06;5033767;28;20029;-82
2021/12/05 13:44:57;;;;;;;8.50;5.45;;;;;;;16.87;44.34;96456.03;5034217;28;20048;-82
2021/12/05 13:47:29;;;;;;;15.80;8.88;;;;;;;16.58;45.40;96465.31;5032444;28;20029;-81
2021/12/05 13:49:58;;;;;;;20.23;11.10;;;;;;;16.80;44.90;96463.94;5030546;28;20165;-81
2021/12/05 13:52:36;;;;;;;33.72;17.65;;;;;;;16.85;44.77;96456.22;5032559;28;20479;-80
2021/12/05 13:55:42;;;;;;;41.42;21.05;;;;;;;15.92;46.38;96466.78;5033508;28;20123;-80
2021/12/05 13:58:23;;;;;;;12.82;6.88;;;;;;;15.32;48.00;96484.47;5030319;28;20025;-81
2021/12/05 14:01:19;;;;;;;190.93;99.78;;;;;;;15.11;48.56;96498.16;5033470;28;20029;-81
2021/12/05 14:03:47;;;;;;;27.75;14.30;;;;;;;14.60;49.54;96495.94;5018699;28;20075;-82
2021/12/05 14:06:32;;;;;;;78.68;39.90;;;;;;;14.11;51.13;96507.72;5051517;28;20488;-82
2021/12/05 14:09:12;;;;;;;23.55;13.18;;;;;;;13.88;52.34;96509.00;5033442;28;20098;-82
2021/12/05 14:12:02;;;;;;;41.92;21.15;;;;;;;13.55;53.27;96518.28;5031640;28;20032;-81
2021/12/05 14:14:35;;;;;;;10.80;7.00;;;;;;;12.76;56.19;96527.16;5022315;28;20420;-81
2021/12/05 14:17:18;;;;;;;22.70;12.13;;;;;;;12.30;58.61;96517.72;5051111;28;20385;-78
2021/12/05 14:19:48;;;;;;;39.28;22.27;;;;;;;11.97;60.74;96531.28;5031752;28;20112;-80
2021/12/05 14:22:15;;;;;;;22.95;11.45;;;;;;;11.83;62.65;96535.13;5029657;28;20404;-78
2021/12/05 14:24:44;;;;;;;25.85;13.60;;;;;;;11.62;63.27;96501.19;5015967;28;20032;-78
2021/12/05 14:27:20;;;;;;;17.00;9.45;;;;;;;11.43;64.25;96518.78;5029857;28;20045;-79
2021/12/05 14:29:47;;;;;;;17.58;9.55;;;;;;;11.28;65.46;96503.13;5014939;28;20480;-78
2021/12/05 14:32:23;;;;;;;26.20;12.25;;;;;;;11.25;65.92;96490.84;5029146;28;20034;-78
2021/12/05 14:34:51;;;;;;;14.60;7.82;;;;;;;11.12;66.14;96473.22;5016170;28;20029;-79
2021/12/05 14:37:19;;;;;;;13.55;7.85;;;;;;;11.11;66.50;96475.03;5033007;28;20469;-79
2021/12/05 14:39:47;;;;;;;26.48;11.13;;;;;;;11.09;67.22;96477.00;5032261;28;20047;-79
2021/12/05 14:42:24;;;;;;;17.25;9.23;;;;;;;10.96;67.90;96480.78;5015878;28;20027;-79
2021/12/05 14:44:55;;;;;;;21.08;11.10;;;;;;;10.96;68.42;96491.47;5031325;28;20504;-78
2021/12/05 14:47:28;;;;;;;23.17;8.97;;;;;;;10.87;68.72;96490.38;5028827;28;20041;-78
2021/12/05 14:49:59;;;;;;;23.33;10.27;;;;;;;10.76;69.56;96503.78;5031553;28;20310;-78
2021/12/05 14:52:29;;;;;;;19.23;8.43;;;;;;;10.68;70.40;96492.81;5031916;28;20045;-79
2021/12/05 14:54:55;;;;;;;20.85;10.00;;;;;;;10.60;71.14;96482.75;5032362;28;20337;-78
2021/12/05 14:57:26;;;;;;;26.15;11.63;;;;;;;10.54;70.90;96488.59;5032019;28;20033;-79
2021/12/05 15:00:01;;;;;;;17.20;9.68;;;;;;;10.59;70.52;96494.41;5031612;28;20082;-79
2021/12/05 15:02:28;;;;;;;21.85;11.05;;;;;;;10.53;70.65;96488.69;5015695;28;20029;-78
2021/12/05 15:04:54;;;;;;;50.90;19.15;;;;;;;10.54;70.86;96491.25;5031628;28;20021;-79
2021/12/05 15:07:21;;;;;;;14.63;7.18;;;;;;;10.51;70.80;96490.63;5032102;28;20075;-78
2021/12/05 15:09:50;;;;;;;27.27;13.32;;;;;;;10.50;70.68;96496.94;5015275;28;20484;-79
2021/12/05 15:12:20;;;;;;;104.72;33.92;;;;;;;10.45;71.27;96499.16;5028463;28;20029;-79
2021/12/05 15:14:48;;;;;;;20.05;10.20;;;;;;;10.36;71.96;96502.53;5013452;28;20511;-78
2021/12/05 15:17:17;;;;;;;15.93;8.75;;;;;;;10.30;72.56;96514.56;5028583;28;20030;-79
2021/12/05 15:19:47;;;;;;;12.27;7.07;;;;;;;10.25;73.07;96504.22;5015205;28;20029;-79
2021/12/05 15:22:13;;;;;;;26.35;13.43;;;;;;;10.18;74.13;96521.69;5028423;28;20091;-78
2021/12/05 15:24:40;;;;;;;28.33;14.68;;;;;;;10.09;74.93;96526.88;5031559;28;20492;-80
2021/12/05 15:27:13;;;;;;;21.58;10.60;;;;;;;9.98;75.20;96517.00;5031501;28;20041;-77
2021/12/05 15:29:44;;;;;;;30.42;13.60;;;;;;;10.00;75.01;96520.38;5028707;28;20064;-78
2021/12/05 15:32:16;;;;;;;24.25;12.68;;;;;;;9.96;74.93;96523.41;5031507;28;20330;-77
2021/12/05 15:34:41;;;;;;;28.60;14.98;;;;;;;9.96;75.27;96526.09;5031518;28;20508;-77
2021/12/05 15:37:10;;;;;;;24.85;12.98;;;;;;;10.02;74.69;96529.16;5030730;28;20036;-77
2021/12/05 15:39:42;;;;;;;32.92;14.02;;;;;;;9.89;74.80;96525.69;5011594;28;20488;-77
2021/12/05 15:42:36;;;;;;;25.10;13.40;;;;;;;9.90;75.40;96538.09;5032116;28;20031;-78
2021/12/05 15:45:05;;;;;;;26.00;13.27;;;;;;;9.84;75.57;96548.38;5029556;28;20491;-78
2021/12/05 15:47:33;;;;;;;21.27;12.65;;;;;;;9.77;75.90;96539.97;5033664;28;20503;-82
2021/12/05 15:50:08;;;;;;;24.58;12.88;;;;;;;9.81;75.48;96538.78;5016703;28;20097;-83
2021/12/05 15:52:41;;;;;;;24.83;13.65;;;;;;;9.81;75.51;96544.13;5052392;28;20033;-90
2021/12/05 15:55:30;;;;;;;25.63;12.48;;;;;;;9.71;76.15;96551.97;5018339;28;20460;-88
2021/12/05 15:58:02;;;;;;;33.22;17.25;;;;;;;9.67;77.55;96542.47;5024461;28;20044;-80
2021/12/05 16:00:34;;;;;;;29.60;13.63;;;;;;;9.64;76.80;96542.72;5030506;28;20025;-83
2021/12/05 16:03:03;;;;;;;35.25;17.48;;;;;;;9.55;77.31;96538.06;5016236;28;20480;-82
2021/12/05 16:05:30;;;;;;;62.30;29.75;;;;;;;9.38;78.80;96537.59;5017641;28;20032;-79
2021/12/05 16:08:06;;;;;;;60.42;32.53;;;;;;;9.14;79.81;96533.06;5033134;28;20052;-79
2021/12/05 16:10:34;;;;;;;109.22;48.50;;;;;;;9.14;81.15;96518.88;5051363;28;20037;-79
2021/12/05 16:13:12;;;;;;;95.13;47.55;;;;;;;9.16;81.51;96517.81;5031362;28;20447;-81
2021/12/05 16:16:18;;;;;;;58.13;27.10;;;;;;;8.89;81.53;96493.13;5025019;28;20032;-94
2021/12/05 16:18:48;;;;;;;33.33;16.35;;;;;;;8.89;81.66;96506.47;5033084;28;20315;-82
2021/12/05 16:21:36;;;;;;;30.10;16.27;;;;;;;8.84;83.81;96537.09;5015646;28;20087;-79
2021/12/05 16:24:20;;;;;;;31.98;16.15;;;;;;;8.76;84.22;96536.78;5012848;28;20025;-77
2021/12/05 16:26:49;;;;;;;38.17;23.02;;;;;;;8.63;84.35;96536.81;5015384;28;20028;-91
2021/12/05 16:29:18;;;;;;;38.05;19.27;;;;;;;8.69;84.59;96555.03;5020362;28;20036;-79
2021/12/05 16:31:53;;;;;;;33.58;18.20;;;;;;;8.67;85.29;96554.28;5030799;28;20119;-83
2021/12/05 16:34:23;;;;;;;35.42;16.80;;;;;;;8.57;86.12;96559.41;5016298;28;20047;-89
2021/12/05 16:37:02;;;;;;;26.90;15.35;;;;;;;8.47;88.09;96561.00;5015887;28;20568;-85
2021/12/05 16:39:27;;;;;;;33.28;17.92;;;;;;;8.73;86.93;96585.84;5014084;28;20445;-86
2021/12/05 16:41:57;;;;;;;45.15;24.67;;;;;;;8.67;84.15;96575.63;5031550;28;20392;-78
2021/12/05 16:44:29;;;;;;;58.40;29.17;;;;;;;8.55;84.46;96568.47;5026815;28;20021;-78
2021/12/05 16:47:03;;;;;;;28.05;15.13;;;;;;;8.51;85.37;96569.66;5015391;28;20024;-91
2021/12/05 16:49:36;;;;;;;22.38;9.77;;;;;;;8.82;83.75;96569.22;5023115;28;20120;-91
2021/12/05 16:52:06;;;;;;;17.65;10.38;;;;;;;8.85;82.51;96537.00;5024045;28;20033;-93
2021/12/05 16:54:48;;;;;;;39.33;18.92;;;;;;;8.85;83.16;96534.31;5024937;28;20120;-92
2021/12/05 16:57:16;;;;;;;116.83;44.10;;;;;;;9.01;82.07;96556.25;5024296;28;20021;-92
2021/12/05 16:59:48;;;;;;;25.35;12.02;;;;;;;8.63;81.93;96499.50;5025105;28;20069;-92
2021/12/05 17:02:17;;;;;;;20.55;11.50;;;;;;;9.13;81.52;96579.41;5023307;28;20449;-80
2021/12/05 17:05:06;;;;;;;17.95;9.90;;;;;;;9.22;81.21;96578.75;5029973;28;20028;-82
2021/12/05 17:07:44;;;;;;;22.02;10.93;;;;;;;9.12;82.09;96556.34;5015439;28;20043;-84
2021/12/05 17:10:24;;;;;;;22.13;10.57;;;;;;;9.05;83.61;96568.41;5005263;28;20029;-84
2021/12/05 17:12:56;;;;;;;23.17;11.98;;;;;;;8.99;84.70;96566.19;5027623;28;20090;-79
2021/12/05 17:15:24;;;;;;;24.70;10.23;;;;;;;8.94;86.04;96571.00;5026873;28;20029;-79
2021/12/05 17:17:53;;;;;;;21.23;9.55;;;;;;;8.82;86.99;96553.22;5012218;28;20281;-77
2021/12/05 17:20:18;;;;;;;16.60;9.10;;;;;;;8.86;87.56;96567.19;5026755;28;20149;-78
2021/12/05 17:23:12;;;;;;;20.13;11.45;;;;;;;8.78;88.52;96577.50;5028701;28;20496;-78